Bloomington, IN (47403)

3:15 AM EDT on September 03, 2015 (GMT -0400)
Eagleview | | Change Station
CLOSE
Current Station
Personal Weather Station
Location: Bloomington, IN
Elevation: 738 ft
Nearby Weather Stations

Elev 738 ft 39.12 °N, 86.55 °W | Updated 33 seconds ago

Clear
Clear
68.4 °F
Feels Like 68.4 °F
N
0.0
Wind Variable Wind from SSE
Gusts 0.0 mph

Today
High -- | Low -- °F
--% Chance of Precip.
Yesterday
High -- | Low -- °F
Precip. -- in
7:16 AM 8:14 PM
Waning Gibbous, 73% visible
Pressure 30.02 in
Visibility 1.8 miles
Clouds Clear
Dew Point 67 °F
Humidity 94%
Rainfall 0.00 in
Snow Depth Not available.
UV 0 out of 12
Pollen 10.70 out of 12
Air Quality Not available.
Flu Activity Not available.
SPECI KBMG 030700Z 00000KT 1 3/4SM BR CLR 18/17 A3002 RMK AO2 VIS 1/2V5 T01830172
Pressure 30.02 in
Visibility 1.8 miles
Clouds Clear
Dew Point 67 °F
Humidity 94%
Rainfall 0.00 in
Snow Depth Not available.
UV 0 out of 12
Pollen 10.70 out of 12
Air Quality Not available.
Flu Activity Not available.
SPECI KBMG 030700Z 00000KT 1 3/4SM BR CLR 18/17 A3002 RMK AO2 VIS 1/2V5 T01830172

10-Day Weather Forecast

×

Almanac

Astronomy

Sep. 03, 2015 Rise Set
Actual Time
Civil Twilight
Nautical Twilight
Astronomical Twilight
Moon
Length of Visible Light
Length of Day
Tomorrow will be .
, % of the Moon is Illuminated

Today's Extremes

State Highs State Lows

Community

WunderPhotos

Upload Photos

1,851,915 photos uploaded!

WunderBlogs® & News

Nearby

Air Quality

  Air Quality AQ Index Pollutant
Not available.

Snow Depth

Station Depth Elevation

Earthquake Activity

City Distance Mag. Time & Date
Minimum magnitude displayed is 2.5.

Coastal Water Temperatures

Place Temperature

Stations

Nearby Weather Stations

Station Location Temp. Windchill Dew Point Humidity Wind Precip. Elev Updated Type